Tiempo atmosférico en la estación meteorológica de Tarancón, Cuenca (808 m.)



Fecha
DESCASC
Temp. máxima en grados centígrados (hora)
DESCASC
Temp. mínima en grados centígrados (hora)
DESCASC
Temp. media en grados centígrados
DESCASC
Racha de viento máxima en m/sg (hora)
DESCASC
Velocidad máxima media en intervalos de 10 minutos(hora)
DESCASC
Precipitaciones diarias en mm
DESCASC
Precipitaciones de 00:00 a 06:00 en mm
DESCASC
Precipitaciones de 06:00 a 12:00 en mm
DESCASC
Precipitaciones de 12:00 a 18:00 en mm
DESCASC
Precipitaciones de 18:00 a 24:00 en mm
DESCASC
22-11-2020 17.3 (15:50) 4.3 (07:40) 10.8 7.5 (00:30) 4.17 (02:20) 0 0 0 0 0
21-11-2020 19.6 (15:40) 4.5 (05:20) 12.1 7.5 (11:50) 4.44 (11:50) 0 0 0 0 0
20-11-2020 17.6 (15:10) 4.8 (08:30) 11.2 13.89 (11:30) 7.78 (11:40) 0 0 0 0 0
19-11-2020 21.1 (15:00) 7.4 (00:00) 14.3 10 (13:20) 6.11 (13:00) 0 0 0 0 0
18-11-2020 18.9 (16:40) 7.9 (00:00) 13.4 4.44 (06:40) 3.06 (06:30) 0 0 0 0 0
17-11-2020 20.8 (15:10) 8.8 (00:00) 14.8 4.72 (12:50) 2.22 (09:50) 0 0 0 0 0
16-11-2020 19.4 (15:00) 12.1 (00:00) 15.8 5.56 (08:00) 3.06 (16:50) 0 0 0 0 0
15-11-2020 17.9 (15:00) 10.2 (00:00) 14 9.17 (11:20) 5.56 (16:10) 0 0 0 0 0
14-11-2020 12.5 (13:20) 10 (00:00) 11.3 6.67 (11:30) 3.61 (06:50) 0 0 0 0 0
13-11-2020 19 (15:40) 8.3 (00:00) 13.7 7.78 (01:20) 4.72 (01:20) 0 0 0 0 0
12-11-2020 19.2 (16:10) 7.4 (00:00) 13.3 7.5 (22:30) 4.72 (22:30) 0 0 0 0 0
11-11-2020 19.6 (16:00) 6.4 (00:00) 13 8.33 (07:30) 5.56 (09:20) 0 0 0 0 0
10-11-2020 17.6 (16:20) 6.2 (00:00) 11.9 5.56 (14:40) 2.5 (16:00) 0 0 0 0 0
09-11-2020 16.2 (15:30) 8.8 (00:00) 12.5 5.83 (10:10) 3.33 (09:40) 0 0 0 0 0
08-11-2020 18.5 (16:20) 6.7 (00:00) 12.6 8.06 (14:20) 3.89 (14:20) 0 0 0 0 0
07-11-2020 14.9 (14:20) 8.7 (00:00) 11.8 13.89 (02:40) 6.94 (02:40) 0 0 0 0 0
06-11-2020 18.8 (14:10) 11.2 (00:00) 15 25.83 (12:40) 13.06 (12:50) 0 0 0 0 0
05-11-2020 13.6 (13:20) 9.7 (00:00) 11.7 21.11 (11:50) 9.72 (13:20) 0 0 0 0 0
04-11-2020 10.9 (14:10) 8.4 (00:00) 9.6 13.33 (23:20) 5.83 (14:40) 0 0 0 0 0
03-11-2020 18.2 (12:40) 9.6 (00:00) 13.9 9.17 (15:30) 5.56 (15:40) 0 0 0 0 0
02-11-2020 25.9 (15:10) 10.2 (00:00) 18 6.11 (15:30) 2.5 (15:30) 0 0 0 0 0
01-11-2020 24 (15:30) 9.9 (00:00) 16.9 5.83 (15:00) 2.78 (13:50) 0 0 0 0 0
31-10-2020 25.6 (15:30) 10.1 (00:00) 17.9 6.11 (16:30) 2.78 (16:30) 0 0 0 0 0
30-10-2020 22.8 (15:50) 8.8 (00:00) 15.8 4.44 (13:20) 2.5 (02:10) 0 0 0 0 0
29-10-2020 18.8 (16:20) 9.9 (00:00) 14.3 5 (14:40) 2.22 (12:00) 0 0 0 0 0
28-10-2020 17.6 (16:50) 8.1 (00:00) 12.9 5.56 (15:10) 2.78 (14:10) 0 0 0 0 0
27-10-2020 16.2 (16:20) 3.3 (00:00) 9.8 8.89 (15:40) 4.72 (15:40) 0 0 0 0 0

Gráficas

Temp. máximas Temp. mínimas Temp. medias Precipitaciones Rachas de viento máximas Velocidades máximas media en intervalos de 10 minutos

Datos horarios

Fecha y hora oficial Temperatura (ºC) Velocidad del viento (km/h) Dirección del viento Racha (km/h) Dirección de racha Precipitación (mm) Presión (hPa) Tendencia (hPa) Humedad (%)
2020-11-25 23:00:00 9.3 15 Sudeste 26 Sudeste 0 918.8 0.5 74
2020-11-25 22:00:00 9.7 15 Sudeste 31 Sur 0 918.9 0.6 73
2020-11-25 21:00:00 10 12 Sur 28 Sudeste 0 918.8 0.4 75
2020-11-25 20:00:00 10 20 Sudeste 33 Sudeste 0 918.3 -0.3 71
2020-11-25 19:00:00 9.9 13 Sudeste 24 Sudeste 0 918.3 -0.6 64
2020-11-25 18:00:00 11 9 Sudeste 24 Sudeste 0 918.4 -1.1 58
2020-11-25 17:00:00 13.9 16 Sudeste 32 Sudeste 0 918.6 -1.7 49
2020-11-25 16:00:00 13.3 15 Sur 28 Sudeste 0 918.9 -2.4 58
2020-11-25 15:00:00 13.7 13 Sur 28 Sudeste 0 919.5 -2.4 58
2020-11-25 14:00:00 12.5 9 Sur 27 Sudeste 0 920.3 -1.8 67
2020-11-25 13:00:00 11.2 13 Sudeste -- -- -- 921.3 -0.9 69
2020-11-25 12:00:00 10.4 12 Sudeste 24 Sudeste 0 921.9 -0.2 70
2020-11-25 11:00:00 9.7 13 Sur 27 Sudeste 0 922.1 -- 69
2020-11-25 10:00:00 7.8 11 Sudeste 22 Sudeste 0 922.2 -- 71
2020-11-25 09:00:00 6.5 9 Sudeste 16 Sudeste 0 922.1 -- 71
2020-11-25 08:00:00 6.2 9 Sudeste 16 Sudeste 0 922.2 -- 71
2020-11-25 07:00:00 6.2 8 Sudeste 19 Sudeste 0 922.4 -- 71
2020-11-25 06:00:00 6.5 9 Sudeste 16 Sudeste 0 922.4 -- 71
2020-11-25 05:00:00 6.7 8 Sudeste 14 Sudeste 0 922.8 -- 70
2020-11-25 04:00:00 6.8 9 Sudeste 16 Sudeste 0 923.1 -- 68
2020-11-25 03:00:00 6.6 9 Sudeste 14 Sudeste 0 923.5 -- 68
2020-11-25 02:00:00 5.8 7 Sudeste 12 Sudeste 0 924 -- 68
2020-11-25 01:00:00 5.1 5 Sudeste 14 Sudeste 0 924.5 -- 68
2020-11-25 00:00:00 5.3 6 Sudeste 13 Sudeste 0 924.9 -- 68
2020-11-24 23:00:00 6.5 4 Oeste 13 Sudoeste 0 925.2 -- 68
2020-11-24 22:00:00 6.4 8 Sudoeste 15 Sur 0 925.5 -- 61
2020-11-24 21:00:00 7.6 9 Sudeste 14 Sur 0 925.3 -- 58
2020-11-24 20:00:00 8.2 6 Sudeste 12 Sudeste 0 925.5 -- 56
2020-11-24 19:00:00 9.8 4 Sur 10 Sudoeste 0 925.6 -- 50
2020-11-24 18:00:00 12 3 Sudoeste 15 Sudoeste 0 925.5 -- 45
2020-11-24 17:00:00 15.5 9 Sudoeste 17 Sudoeste 0 925.6 -- 38
2020-11-24 16:00:00 15.4 9 Sudoeste 18 Sudoeste 0 925.8 -- 37
2020-11-24 15:00:00 16.3 9 Sudoeste 19 Sudoeste 0 926.4 -- 35
2020-11-24 14:00:00 14.6 6 Sur 17 Sudoeste 0 927.2 -- 40
2020-11-24 13:00:00 13.2 8 Sur 15 Sur 0 928.1 -- 47
2020-11-24 12:00:00 10.3 6 Sur 15 Sudeste 0 929 -- 59
2020-11-24 11:00:00 8 8 Sudeste 16 Sur 0 929.3 -- 69
2020-11-24 10:00:00 5.6 9 Sudeste 16 Sudeste 0 929.2 -- 80
2020-11-24 09:00:00 3.8 9 Sudeste 15 Sudeste 0 928.8 -- 83
2020-11-24 08:00:00 3.6 8 Sudeste 15 Sudeste 0 928.8 -- 82
2020-11-24 07:00:00 3.9 9 Sudeste 17 Sudeste 0 928.7 -- 80
2020-11-24 06:00:00 4.7 12 Sudeste 19 Sudeste 0 928.6 -- 76
2020-11-24 05:00:00 5.2 9 Sudeste 14 Sudeste 0 928.9 -- 71
2020-11-24 04:00:00 5.6 8 Sudeste 13 Sudeste 0 929.4 -- 70
2020-11-24 03:00:00 6 8 Sudeste 13 Sudeste 0 929.8 -- 67
2020-11-24 02:00:00 5.9 6 Sudeste 13 Sudeste 0 930.1 -- 67
2020-11-24 01:00:00 6.3 9 Sudeste 14 Sudeste 0 930.6 -- 64
2020-11-24 00:00:00 6.7 5 Sudeste 11 Sudeste 0 930.9 -- 60
2020-11-23 23:00:00 7.1 6 Sudeste 13 Sudeste 0 931.2 -- 59
2020-11-23 22:00:00 8.2 8 Sudeste 12 Sudeste 0 931.3 -- 59
2020-11-23 21:00:00 9.1 4 Este 6 Este 0 931.2 -- 63
2020-11-23 20:00:00 10.5 4 Nordeste 6 Nordeste 0 931.2 -- 57
2020-11-23 19:00:00 11.3 4 Norte 6 Norte 0 931 -- 56
2020-11-23 18:00:00 13.6 2 Noroeste 6 Noroeste 0 930.8 -- 48
2020-11-23 17:00:00 15.8 3 Noroeste 10 Noroeste 0 930.7 -- 42
2020-11-23 16:00:00 16.7 4 Noroeste 10 Norte 0 930.7 -- 36
2020-11-23 15:00:00 18.7 4 Sur 12 Sudoeste 0 931 -- 29
2020-11-23 14:00:00 17.2 4 Sudeste 13 Sudeste 0 931.5 -- 33
2020-11-23 13:00:00 14 3 Sudeste 13 Sur 0 932.3 -- 44
2020-11-23 12:00:00 10.6 5 Sudeste 15 Sudeste 0 932.9 -- 57
2020-11-23 11:00:00 8 10 Sudeste 16 Sudeste 0 933.1 -- 66
2020-11-23 10:00:00 5.8 8 Sudeste 14 Sudeste 0 932.8 -- 71
2020-11-23 09:00:00 4.1 8 Sudeste 11 Sudeste 0 932.3 -- 76
2020-11-23 08:00:00 3.8 6 Sudeste 11 Sudeste 0 931.9 -- 75
2020-11-23 07:00:00 4.1 7 Sudeste 9 Sudeste 0 931.7 -- 77
2020-11-23 06:00:00 3.8 0 Calma 6 Sudeste 0 931.7 -- 78
2020-11-23 05:00:00 4.1 5 Sudeste 7 Sudeste 0 931.7 -- 78
2020-11-23 04:00:00 4.8 3 Sudeste 6 Sudeste 0 931.8 -- 75
2020-11-23 03:00:00 5.4 3 Sudeste 7 Sudeste 0 931.8 -- 74
2020-11-23 02:00:00 6.5 0 Calma 6 Norte 0 932 -- 69
2020-11-23 01:00:00 7.2 4 Nordeste 9 Nordeste 0 932.4 -- 70
2020-11-23 00:00:00 7.3 5 Nordeste 8 Norte 0 932.5 -- 70
2020-11-22 23:00:00 7.3 0 Calma 4 Norte 0 932.4 -- 71
2020-11-22 22:00:00 7.9 3 Norte 5 Norte 0 932.4 -- 67
2020-11-22 21:00:00 8.5 3 Norte 5 Norte 0 932.2 -- 66
2020-11-22 20:00:00 9 0 Calma 3 Oeste 0 932 -- 63
2020-11-22 19:00:00 10.3 0 Calma 4 Noroeste 0 931.6 -- 57
2020-11-22 18:00:00 12.7 0 Calma 10 Norte 0 931.4 -- 49
2020-11-22 17:00:00 15.3 6 Noroeste 13 Noroeste 0 931.3 -- 40
2020-11-22 16:00:00 15.9 3 Noroeste 10 Oeste 0 931.3 -- 39
2020-11-22 15:00:00 15.1 3 Noroeste 13 Noroeste 0 931.7 -- 46
2020-11-22 14:00:00 13.7 5 Noroeste 13 Noroeste 0 932.1 -- 53
2020-11-22 13:00:00 11.8 5 Noroeste 13 Noroeste 0 932.9 -- 60
2020-11-22 12:00:00 10 6 Noroeste 14 Noroeste 0 933.3 -- 67
2020-11-22 11:00:00 8.8 6 Sudeste 14 Este 0 933.3 -- 70
2020-11-22 10:00:00 6.4 6 Este 12 Este 0 933.4 -- 77
2020-11-22 09:00:00 5 5 Este 18 Este 0 933.1 -- 83
2020-11-22 08:00:00 4.6 4 Nordeste 13 Este 0 932.7 -- 83
2020-11-22 07:00:00 4.8 6 Este 16 Este 0 932.7 -- 81
2020-11-22 06:00:00 4.9 5 Nordeste 20 Este 0 932.6 -- 83
2020-11-22 05:00:00 5.6 9 Este 21 Este 0 932.5 -- 82
2020-11-22 04:00:00 5.8 10 Este 18 Este 0 932.7 -- 80
2020-11-22 03:00:00 6.3 6 Este 24 Sudeste 0 932.9 -- 78
2020-11-22 02:00:00 6.4 12 Sudeste 23 Sudeste 0 932.8 -- 77
2020-11-22 01:00:00 7.2 12 Sudeste 27 Este 0 933 -- 74
2020-11-22 00:00:00 7.3 12 Sudeste 22 Sudeste 0 933.3 -- 71
2020-11-21 23:00:00 8 13 Sudeste 22 Este 0 933 -- 65
2020-11-21 22:00:00 8.3 10 Sudeste 20 Sudeste 0 932.8 -- 60
2020-11-21 21:00:00 8.6 12 Sudeste 21 Sudeste 0 932.7 -- 58
2020-11-21 20:00:00 9.2 8 Sudeste 17 Sur 0 932.6 -- 54
2020-11-21 19:00:00 10.9 8 Sudeste 14 Sudeste 0 932.4 -- 49
2020-11-21 18:00:00 13.8 10 Sudeste 24 Sudeste 0 932.1 -- 41
2020-11-21 17:00:00 17.5 10 Sudeste 23 Sudeste 0 931.6 -- 35
2020-11-21 16:00:00 19.4 9 Sudeste 21 Sudeste 0 931.5 -- 32
2020-11-21 15:00:00 19.5 9 Sudeste 18 Sudeste 0 931.5 -- 30
2020-11-21 14:00:00 17.7 8 Sudeste 22 Sur 0 932 -- 30
2020-11-21 13:00:00 15.1 11 Sudeste 26 Sudeste 0 932.5 -- 37
2020-11-21 12:00:00 11.5 11 Sudeste 27 Este 0 933 -- 43
2020-11-21 11:00:00 9.7 13 Sudeste 24 Sudeste 0 932.8 -- 43
2020-11-21 10:00:00 7.1 8 Sudeste 17 Sudeste 0 932.6 -- 46
2020-11-21 09:00:00 5 11 Sudeste 16 Sudeste 0 932.1 -- 47
2020-11-21 08:00:00 5.8 8 Este 15 Este 0 931.6 -- 40
2020-11-21 07:00:00 5.3 5 Este 10 Este 0 931.1 -- 46
2020-11-21 06:00:00 5.1 4 Nordeste 9 Norte 0 931.2 -- 46
2020-11-21 05:00:00 4.9 7 Norte 10 Norte 0 931.2 -- 46
2020-11-21 04:00:00 6 5 Nordeste 13 Nordeste 0 931.7 -- 44
2020-11-21 03:00:00 5.8 7 Nordeste 10 Nordeste 0 931.7 -- 46
2020-11-21 02:00:00 5.7 5 Norte 13 Norte 0 932.1 -- 47
2020-11-21 01:00:00 6.4 11 Norte 16 Norte 0 932.3 -- 45
2020-11-21 00:00:00 7.9 8 Nordeste 19 Norte 0 932.4 -- 38
2020-11-20 23:00:00 8.3 12 Norte 26 Norte 0 932.5 -- 38
2020-11-20 22:00:00 7.8 11 Norte 26 Norte 0 932.1 -- 44
2020-11-20 21:00:00 9 18 Norte 25 Norte 0 931.9 -- 42
2020-11-20 20:00:00 10.4 12 Norte 24 Norte 0 931.8 -- 39
2020-11-20 19:00:00 11.1 12 Norte 25 Norte 0 931.8 -- 37
2020-11-20 18:00:00 13.5 14 Norte 27 Norte 0 931.9 -- 30
2020-11-20 17:00:00 15.9 18 Norte 39 Norte 0 932.1 -- 27
2020-11-20 16:00:00 16.6 26 Norte 41 Norte 0 932 -- 27
2020-11-20 15:00:00 17.1 16 Norte 33 Norte 0 932.7 -- 24
2020-11-20 14:00:00 15.8 19 Norte 35 Norte 0 933.3 -- 25
2020-11-20 13:00:00 13.9 23 Norte 35 Norte 0 934.1 -- 26
2020-11-20 12:00:00 12.7 17 Norte 50 Norte 0 934.9 -- 25
2020-11-20 11:00:00 10.6 12 Norte 29 Norte 0 934.7 -- 35
2020-11-20 10:00:00 8 13 Norte 25 Noroeste 0 934.4 -- 48
2020-11-20 09:00:00 6.8 13 Norte 22 Norte 0 934.2 -- 49
2020-11-20 08:00:00 5.3 3 Noroeste 21 Norte 0 934.3 -- 69
2020-11-20 07:00:00 6 13 Norte 23 Norte 0 934.5 -- 68
2020-11-20 06:00:00 6.3 12 Norte 28 Noroeste 0 934.5 -- 75
2020-11-20 05:00:00 7.9 13 Norte 24 Norte 0 934.8 -- 66
2020-11-20 04:00:00 8.7 18 Norte 27 Norte 0 935.5 -- 65
2020-11-20 03:00:00 9.2 13 Norte 23 Norte 0 935.4 -- 70
2020-11-20 02:00:00 8.8 14 Norte 21 Norte 0 936 -- 79
2020-11-20 01:00:00 9.6 4 Norte 15 Norte 0 936.5 -- 76
2020-11-20 00:00:00 10.7 10 Norte 16 Norte 0 936.7 -- 74
2020-11-19 23:00:00 11.8 0 Calma 12 Norte 0 936.9 -- 72
2020-11-19 22:00:00 13.1 6 Nordeste 21 Norte 0 936.8 -- 68
2020-11-19 21:00:00 13.7 6 Norte 20 Norte 0 936.3 -- 65
2020-11-19 20:00:00 14.8 9 Norte 21 Norte 0 936.3 -- 62
2020-11-19 19:00:00 16 10 Norte 21 Norte 0 936 -- 58
2020-11-19 18:00:00 17.7 9 Norte 20 Norte 0 935.5 -- 52
2020-11-19 17:00:00 20.2 13 Norte 25 Norte 0 935.1 -- 42
2020-11-19 16:00:00 21.1 14 Norte 26 Norte 0 935.2 -- 38
2020-11-19 15:00:00 21 13 Norte 26 Nordeste 0 935.5 -- 41
2020-11-19 14:00:00 19.6 14 Norte 36 Norte 0 935.8 -- 46
2020-11-19 13:00:00 17.7 22 Norte 32 Norte 0 936.4 -- 54
2020-11-19 12:00:00 13.9 11 Noroeste 23 Norte 0 936.8 -- 66
2020-11-19 11:00:00 12.4 13 Norte 22 Norte 0 936.5 -- 68
2020-11-19 10:00:00 10.1 10 Norte 18 Norte 0 935.8 -- 77
2020-11-19 09:00:00 8.5 7 Norte 12 Noroeste 0 935.3 -- 86
2020-11-19 08:00:00 7.8 5 Norte 8 Norte 0 934.6 -- 93
2020-11-19 07:00:00 7.8 5 Norte 8 Norte 0 934.3 -- 93
2020-11-19 06:00:00 9.1 6 Norte 9 Norte 0 933.9 -- 93
2020-11-19 05:00:00 9.3 9 Norte 12 Norte 0 933.8 -- 93
2020-11-19 04:00:00 10.4 2 Nordeste 12 Este 0 933.7 -- 91
2020-11-19 03:00:00 10.5 8 Este 14 Este 0 933.7 -- 94
2020-11-19 02:00:00 9.2 5 Norte 12 Norte 0 934.1 -- 92
2020-11-19 01:00:00 11.5 6 Nordeste 11 Norte 0 934.1 -- 93
2020-11-19 00:00:00 10.4 6 Norte 9 Norte 0 934.2 -- 93
2020-11-18 23:00:00 11.3 6 Norte 8 Norte 0 934 -- 91
2020-11-18 22:00:00 11.8 6 Norte 7 Norte 0 933.6 -- 88
2020-11-18 21:00:00 12.5 4 Norte 7 Nordeste 0 933.5 -- 84
2020-11-18 20:00:00 13 4 Norte 8 Nordeste 0 933.2 -- 83
2020-11-18 19:00:00 14.1 0 Calma 5 Norte 0 932.8 -- 79
2020-11-18 18:00:00 15 5 Norte 8 Noroeste 0 932.6 -- 75
2020-11-18 17:00:00 18.1 4 Noroeste 11 Noroeste 0 932.6 -- 56
2020-11-18 16:00:00 18.2 5 Noroeste 12 Noroeste 0 932.5 -- 61
2020-11-18 15:00:00 16.6 5 Noroeste 15 Noroeste 0 932.6 -- 68
2020-11-18 14:00:00 15.6 6 Norte 13 Norte 0 932.9 -- 74
2020-11-18 13:00:00 14.5 5 Noroeste 13 Norte 0 933.5 -- 78
2020-11-18 12:00:00 13.9 4 Noroeste 10 Noroeste 0 934 -- 83
2020-11-18 11:00:00 11.7 3 Norte 13 Este 0 934 -- 88
2020-11-18 10:00:00 10.3 4 Este 8 Este 0 933.7 -- 94
2020-11-18 09:00:00 8 0 Calma 9 Sudeste 0 933.5 -- 94
2020-11-18 08:00:00 8.4 8 Sudeste 14 Sudeste 0 933.2 -- 94
2020-11-18 07:00:00 8.9 9 Sudeste 16 Sudeste 0 932.9 -- 94
2020-11-18 06:00:00 9.3 9 Sudeste 14 Sudeste 0 932.7 -- 93
2020-11-18 05:00:00 10 5 Sur 13 Sur 0 932.6 -- 92
2020-11-18 04:00:00 10 8 Sudeste 13 Sudeste 0 932.6 -- 87
2020-11-18 03:00:00 10.4 7 Sur 12 Sur 0 932.7 -- 86
2020-11-18 02:00:00 10.5 6 Sudeste 10 Sudeste 0 932.9 -- 86
2020-11-18 01:00:00 11.1 8 Sudeste 10 Sudeste 0 933 -- 88
2020-11-18 00:00:00 11.6 7 Sudeste 9 Sudeste 0 933.3 -- 90
2020-11-17 23:00:00 11.3 7 Sudeste 9 Sudeste 0 933.4 -- 87
2020-11-17 22:00:00 11.9 6 Sudeste 9 Sur 0 933.2 -- 85
2020-11-17 21:00:00 12.8 6 Sur 10 Sur 0 932.9 -- 85
2020-11-17 20:00:00 13.2 5 Sur 9 Sur 0 932.7 -- 82
2020-11-17 19:00:00 14.2 4 Sudoeste 7 Sudoeste 0 932.3 -- 79
2020-11-17 18:00:00 16.3 3 Norte 10 Noroeste 0 932.1 -- 75
2020-11-17 17:00:00 19.2 4 Noroeste 10 Oeste 0 931.9 -- 64
2020-11-17 16:00:00 20.3 6 Sudoeste 14 Sudoeste 0 931.8 -- 55
2020-11-17 15:00:00 20.4 6 Sudoeste 15 Oeste 0 932 -- 55
2020-11-17 14:00:00 18.2 3 Noroeste 14 Sudoeste 0 932.3 -- 67
2020-11-17 13:00:00 17.7 5 Sudoeste 17 Oeste 0 932.8 -- 68
2020-11-17 12:00:00 14.4 6 Sudoeste 10 Sudoeste 0 933.5 -- 81
2020-11-17 11:00:00 12.8 3 Sudoeste 12 Sudeste 0 933.2 -- 90
2020-11-17 10:00:00 10.4 7 Sudeste 11 Sudeste 0 933 -- 93
2020-11-17 09:00:00 9.4 3 Sudeste 5 Sudeste 0 932.3 -- 93
2020-11-17 08:00:00 9.2 0 Calma 5 Sudeste 0 931.7 -- 92
2020-11-17 07:00:00 9.2 0 Calma 5 Sudeste 0 931.6 -- 91
2020-11-17 06:00:00 9.5 4 Sudeste 10 Sudeste 0 931.4 -- 89
2020-11-17 05:00:00 9.7 7 Sudeste 11 Sudeste 0 931.4 -- 90
2020-11-17 04:00:00 9.9 2 Nordeste 5 Oeste 0 931.4 -- 89
2020-11-17 03:00:00 9.7 3 Sudoeste 6 Sudeste 0 931.6 -- 88
2020-11-17 02:00:00 10.5 3 Sudeste 6 Sudeste 0 931.8 -- 86
2020-11-17 01:00:00 11.3 0 Calma 4 Norte 0 931.7 -- 85
2020-11-17 00:00:00 12.1 3 Norte 6 Noroeste 0 931.8 -- 85
2020-11-16 23:00:00 12.6 3 Noroeste 6 Noroeste 0 931.7 -- 83
2020-11-16 22:00:00 12.6 0 Calma 8 Noroeste 0 931.7 -- 81
2020-11-16 21:00:00 13.1 2 Noroeste 5 Oeste 0 931.2 -- 78
2020-11-16 20:00:00 13.8 0 Calma 10 Oeste 0 930.9 -- 74
2020-11-16 19:00:00 14.4 5 Sudoeste 8 Oeste 0 930.6 -- 72
2020-11-16 18:00:00 16.3 4 Oeste 18 Oeste 0 930 -- 64
2020-11-16 17:00:00 17.8 7 Oeste 18 Oeste 0 929.5 -- 58
2020-11-16 16:00:00 17.1 5 Noroeste 13 Noroeste 0 929.3 -- 61
2020-11-16 15:00:00 19.4 6 Noroeste 19 Noroeste 0 929.6 -- 52
2020-11-16 14:00:00 18.8 8 Noroeste 18 Noroeste 0 929.8 -- 61
2020-11-16 13:00:00 17.1 7 Sudoeste 17 Sudoeste 0 930 -- 71
2020-11-16 12:00:00 15.7 6 Sudoeste 10 Oeste 0 930.2 -- 77
2020-11-16 11:00:00 13.9 4 Noroeste 12 Oeste 0 930.1 -- 88
2020-11-16 10:00:00 13.6 6 Noroeste 16 Noroeste 0 929.8 -- 91
2020-11-16 09:00:00 13.5 6 Noroeste 17 Oeste 0 929 -- 94
2020-11-16 08:00:00 13.3 8 Oeste 20 Oeste 0 928.2 -- 94
2020-11-16 07:00:00 12.6 6 Sudoeste 12 Sudoeste 0 928.2 -- 93
2020-11-16 06:00:00 12.7 6 Sur 13 Sudoeste 0 927.6 -- 93
2020-11-16 05:00:00 12.6 6 Sur 15 Sudoeste 0 927.6 -- 93
2020-11-16 04:00:00 12.9 6 Sur 14 Sur 0 927.8 -- 92
2020-11-16 03:00:00 13.2 7 Sur 12 Sudoeste 0 928 -- 92
2020-11-16 02:00:00 13.3 6 Sur 11 Sur 0 928.3 -- 90
2020-11-16 01:00:00 13.6 6 Sur 11 Sur 0 928.6 -- 89
2020-11-16 00:00:00 13.7 4 Sudoeste 15 Sudoeste 0 928.6 -- 89
2020-11-15 23:00:00 13.7 9 Sudoeste 16 Sudoeste 0 928.5 -- 89
2020-11-15 22:00:00 13.3 8 Sur 16 Sudeste 0 928 -- 90
2020-11-15 21:00:00 13.6 8 Sur 14 Sur 0 928.2 -- 89
2020-11-15 20:00:00 14 7 Sudoeste 21 Sudoeste 0 928 -- 87
2020-11-15 19:00:00 14.5 8 Sur 16 Sur 0 927.8 -- 84
2020-11-15 18:00:00 15.5 10 Sudoeste 26 Sudoeste 0 927.9 -- 80
2020-11-15 17:00:00 16.6 17 Sudoeste 32 Sudoeste 0 927.6 -- 75
2020-11-15 16:00:00 17 18 Sudoeste 29 Sudoeste 0 927.3 -- 76
2020-11-15 15:00:00 17.9 17 Sudoeste 29 Sudoeste 0 927.5 -- 74
2020-11-15 14:00:00 15.1 12 Sudoeste 26 Sur 0 927.6 -- 87
2020-11-15 13:00:00 14.4 17 Sudoeste 27 Sudoeste 0 928.1 -- 89
2020-11-15 12:00:00 12.9 13 Sudoeste 33 Sudoeste 0 928.5 -- 94
2020-11-15 11:00:00 11.9 12 Sur 22 Sur 0 928.4 -- 95
2020-11-15 10:00:00 10.8 9 Sur 20 Sur 0 928.5 -- 95
2020-11-15 09:00:00 10.2 9 Sur 18 Sudeste 0 928.2 -- 95
2020-11-15 08:00:00 10.3 9 Sur 16 Sur 0 927.8 -- 95
2020-11-15 07:00:00 10.7 6 Sur 14 Sur 0 927.6 -- 94
2020-11-15 06:00:00 10.5 5 Sur 13 Sur 0 927.2 -- 94
2020-11-15 05:00:00 11.1 0 Calma 20 Sudoeste 0 926.8 -- 94
2020-11-15 04:00:00 11.5 13 Sudoeste 20 Sudoeste 0 927.4 -- 95
2020-11-15 03:00:00 11.8 8 Sudoeste 17 Sudoeste 0 927.3 -- 94
2020-11-15 02:00:00 11.9 4 Sur 13 Sur 0 927.5 -- 94
2020-11-15 01:00:00 12.1 8 Sur 14 Sur 0 927.5 -- 94
2020-11-15 00:00:00 12.1 5 Sur 14 Sudoeste 0 927.7 -- 94
2020-11-14 23:00:00 12.1 6 Sur 14 Sudoeste 0 927.9 -- 94
2020-11-14 22:00:00 12.1 6 Sur 12 Sudoeste 0 927.6 -- 93
2020-11-14 21:00:00 12.2 5 Sur 12 Sudoeste 0 927.2 -- 93
2020-11-14 20:00:00 12.2 5 Sur 11 Sudeste 0 927.4 -- 92
2020-11-14 19:00:00 12.2 3 Sur 9 Sur 0 926.9 -- 92
2020-11-14 18:00:00 12.3 4 Sur 15 Sudoeste 0 926.5 -- 92
2020-11-14 17:00:00 12.3 7 Sur 22 Sudoeste 0 926.3 -- 92
2020-11-14 16:00:00 12.3 9 Sur 22 Sudoeste 0 926.2 -- 92
2020-11-14 15:00:00 12.4 8 Sur 17 Sur 0 926.3 -- 91
2020-11-14 14:00:00 12.4 8 Sur 18 Sur 0 926.6 -- 91
2020-11-14 13:00:00 12.3 9 Sudeste 19 Sur 0 927 -- 91
2020-11-14 12:00:00 12.2 8 Sur 24 Sur 0 927.5 -- 86
2020-11-14 11:00:00 12 9 Sur 21 Sudeste 0 927.4 -- 84
2020-11-14 10:00:00 11.1 10 Sudeste 20 Sur 0 927.1 -- 85
2020-11-14 09:00:00 10.5 11 Sudeste 17 Sudeste 0 926.8 -- 86
2020-11-14 08:00:00 10.3 10 Sudeste 18 Sudeste 0 926.3 -- 86
2020-11-14 07:00:00 10.3 9 Sudeste 20 Sudeste 0 926.1 -- 86
2020-11-14 06:00:00 10.4 9 Sudeste 18 Sudeste 0 925.9 -- 82
2020-11-14 05:00:00 10.5 8 Sudeste 16 Sudeste 0 925.9 -- 79
2020-11-14 04:00:00 10.1 9 Sudeste 16 Sudeste 0 926.2 -- 78
2020-11-14 03:00:00 10.4 8 Sudeste 13 Sudeste 0 926.7 -- 76
2020-11-14 02:00:00 10.4 8 Sudeste 14 Sudeste 0 927 -- 74
2020-11-14 01:00:00 10.4 9 Sudeste 14 Sudeste 0 927.3 -- 73
2020-11-14 00:00:00 10.4 8 Sudeste 12 Sudeste 0 927.5 -- 73
2020-11-13 23:00:00 10.5 7 Sudeste 13 Sudeste 0 927.3 -- 74
2020-11-13 22:00:00 10.7 5 Sudeste 11 Sudeste 0 927.3 -- 74
2020-11-13 21:00:00 11.4 4 Sur 9 Sur 0 927.1 -- 71
2020-11-13 20:00:00 11.8 4 Sudoeste 8 Sudoeste 0 926.9 -- 69
2020-11-13 19:00:00 12.7 4 Sudoeste 11 Sudoeste 0 926.4 -- 65
2020-11-13 18:00:00 14.5 4 Sudoeste 14 Sur 0 926 -- 58
2020-11-13 17:00:00 17.5 2 Sudoeste 13 Sudoeste 0 925.8 -- 47
2020-11-13 16:00:00 17.1 8 Sudoeste 14 Sudoeste 0 926 -- 49
2020-11-13 15:00:00 16.8 5 Sur 18 Sudoeste 0 926.3 -- 50
2020-11-13 14:00:00 16.7 3 Sur 14 Sudoeste 0 926.7 -- 55
2020-11-13 13:00:00 15.9 9 Sudeste 18 Sudeste 0 927.2 -- 61
2020-11-13 12:00:00 14.5 10 Sudeste 24 Sudeste 0 927.5 -- 66
2020-11-13 11:00:00 12.7 12 Sudeste 23 Sudeste 0 927.4 -- 74
2020-11-13 10:00:00 10.7 9 Sudeste 18 Sudeste 0 927.3 -- 80
2020-11-13 09:00:00 9 9 Sudeste 16 Sudeste 0 926.8 -- 82
2020-11-13 08:00:00 8.6 10 Sudeste 22 Sudeste 0 926.2 -- 82
2020-11-13 07:00:00 8.4 9 Sudeste 20 Sudeste 0 926.1 -- 80
2020-11-13 06:00:00 8.3 9 Sudeste 23 Sudeste 0 926 -- 79
2020-11-13 05:00:00 8.7 14 Sudeste 26 Sudeste 0 925.8 -- 76
2020-11-13 04:00:00 9 12 Sudeste 24 Sudeste 0 925.9 -- 74
2020-11-13 03:00:00 9.2 12 Sudeste 26 Sur 0 926.2 -- 76
2020-11-13 02:00:00 9.5 15 Sudeste 28 Sudeste 0 926.4 -- 76
2020-11-13 01:00:00 9.6 15 Sudeste 27 Sudeste 0 926.5 -- 76
2020-11-13 00:00:00 9.9 13 Sudeste 24 Sudeste 0 926.7 -- 72
2020-11-12 23:00:00 9.7 12 Sudeste 27 Sudeste 0 926.6 -- 72
2020-11-12 22:00:00 10.4 12 Sudeste 19 Sudeste 0 926.8 -- 64
2020-11-12 21:00:00 10.7 10 Sudeste 20 Sudeste 0 926.7 -- 62
2020-11-12 20:00:00 11.3 9 Sudeste 18 Sudeste 0 926.8 -- 59
2020-11-12 19:00:00 12.9 9 Sudeste 18 Sudeste 0 926.6 -- 56
2020-11-12 18:00:00 15.2 9 Sudeste 18 Sudeste 0 926.2 -- 46
2020-11-12 17:00:00 17.1 9 Sudeste 19 Este 0 926.3 -- 44
2020-11-12 16:00:00 18.8 7 Este 20 Sudeste 0 926.4 -- 40
2020-11-12 15:00:00 16.6 8 Este 18 Sudeste 0 926.7 -- 44
2020-11-12 14:00:00 16.8 6 Sur 15 Sur 0 927.6 -- 55
2020-11-12 13:00:00 14.1 6 Este 14 Este 0 928.2 -- 62
2020-11-12 12:00:00 12.9 9 Este 14 Este 0 928.7 -- 69
2020-11-12 11:00:00 11.8 6 Sudeste 11 Este 0 929.2 -- 73
2020-11-12 10:00:00 9.5 7 Este 13 Este 0 929 -- 79
2020-11-12 09:00:00 8.7 5 Este 8 Este 0 929 -- 82
2020-11-12 08:00:00 8.1 5 Nordeste 12 Nordeste 0 928.5 -- 83
2020-11-12 07:00:00 7.5 4 Nordeste 9 Norte 0 928.3 -- 86
2020-11-12 06:00:00 8.5 3 Este 12 Este 0 928.3 -- 81
2020-11-12 05:00:00 8.6 6 Sudeste 10 Este 0 928.5 -- 81
2020-11-12 04:00:00 8.4 3 Este 7 Este 0 928.9 -- 81
2020-11-12 03:00:00 9.1 3 Sudeste 13 Sudeste 0 929.3 -- 79
2020-11-12 02:00:00 9.5 7 Sudeste 13 Sudeste 0 929.6 -- 80
2020-11-12 01:00:00 9.5 8 Sudeste 13 Sudeste 0 929.9 -- 79
2020-11-12 00:00:00 9.8 6 Sudeste 12 Sudeste 0 929.8 -- 77
2020-11-11 23:00:00 10.4 7 Sudeste 11 Sudeste 0 929.7 -- 76
2020-11-11 22:00:00 10.9 5 Sudeste 9 Este 0 929.6 -- 73
2020-11-11 21:00:00 11.8 5 Sudeste 9 Sudeste 0 929.4 -- 70
2020-11-11 20:00:00 12.7 4 Este 8 Nordeste 0 929.4 -- 67
2020-11-11 19:00:00 13.1 3 Este 8 Este 0 929.4 -- 67
2020-11-11 18:00:00 14.5 4 Oeste 8 Sudoeste 0 929.3 -- 59
2020-11-11 17:00:00 17.3 3 Sudeste 10 Sudoeste 0 929 -- 50
2020-11-11 16:00:00 18.9 3 Sudeste 15 Este 0 928.9 -- 50
2020-11-11 15:00:00 18.1 7 Sudeste 18 Sudeste 0 928.9 -- 52
2020-11-11 14:00:00 17.2 8 Sudeste 18 Este 0 929.7 -- 58
2020-11-11 13:00:00 15.4 9 Sudeste 21 Este 0 930.2 -- 65
2020-11-11 12:00:00 12.8 13 Sudeste 24 Sudeste 0 930.8 -- 74
2020-11-11 11:00:00 9.8 15 Sudeste 27 Sudeste 0 931.1 -- 88
2020-11-11 10:00:00 8.3 17 Sudeste 29 Sudeste 0 931.2 -- 93
2020-11-11 09:00:00 7.3 17 Sudeste 28 Sudeste 0 931.2 -- 94
2020-11-11 08:00:00 6.8 13 Sudeste 30 Sudeste 0 931 -- 93
2020-11-11 07:00:00 7.4 13 Sudeste 25 Sudeste 0 931 -- 87
2020-11-11 06:00:00 7.7 11 Sudeste 20 Sudeste 0 931.1 -- 86
2020-11-11 05:00:00 7.9 10 Sudeste 17 Este 0 931 -- 83
2020-11-11 04:00:00 8.5 7 Este 15 Este 0 931.5 -- 77
2020-11-11 03:00:00 8.8 6 Este 9 Este 0 931.6 -- 80
2020-11-11 02:00:00 9.7 5 Este 10 Este 0 932.4 -- 77
2020-11-11 01:00:00 9.8 6 Este 9 Este 0 932 -- 83
2020-11-11 00:00:00 9.5 4 Norte 6 Norte 0 932.4 -- 84
2020-11-10 23:00:00 9.9 4 Noroeste 8 Noroeste 0 932.5 -- 80
2020-11-10 22:00:00 10.4 2 Noroeste 3 Noroeste 0 931.9 -- 79
2020-11-10 21:00:00 10.8 2 Noroeste 5 Noroeste 0 931.9 -- 76
2020-11-10 20:00:00 11.6 2 Norte 6 Noroeste 0 931.9 -- 69
2020-11-10 19:00:00 12.8 0 Calma 4 Norte 0 931.9 -- 63
2020-11-10 18:00:00 14.8 3 Noroeste 14 Noroeste 0 931.6 -- 53
2020-11-10 17:00:00 17 6 Noroeste 16 Noroeste 0 931.5 -- 43
2020-11-10 16:00:00 17.1 9 Noroeste 20 Noroeste 0 931.4 -- 46
2020-11-10 15:00:00 16.2 8 Noroeste 20 Noroeste 0 931.7 -- 59
2020-11-10 14:00:00 14.7 8 Noroeste 15 Noroeste 0 932 -- 67
2020-11-10 13:00:00 13.2 6 Noroeste 14 Noroeste 0 932.4 -- 76
2020-11-10 12:00:00 11.8 8 Nordeste 16 Este 0 932.8 -- 77
2020-11-10 11:00:00 9.5 5 Norte 9 Norte 0 932.8 -- 88
2020-11-10 10:00:00 8.6 5 Nordeste 11 Este 0 932.5 -- 90
2020-11-10 09:00:00 7.2 4 Este 15 Este 0 931.9 -- 94
2020-11-10 08:00:00 6.3 5 Este 10 Este 0 931.1 -- 94
2020-11-10 07:00:00 6.8 4 Norte 6 Norte 0 931 -- 92
2020-11-10 06:00:00 7.8 0 Calma 4 Este 0 930.6 -- 91
2020-11-10 05:00:00 8 0 Calma 3 Este 0 930.4 -- 91
2020-11-10 04:00:00 8.6 2 Nordeste 6 Nordeste 0 930.4 -- 91
2020-11-10 03:00:00 9 3 Norte 4 Norte 0 930.7 -- 92
2020-11-10 02:00:00 8.9 0 Calma 4 Noroeste 0 930.5 -- 91
2020-11-10 01:00:00 8.5 2 Noroeste 4 Noroeste 0 930.6 -- 88
2020-11-10 00:00:00 9 0 Calma 2 Sudeste 0 930.6 -- 87
2020-11-09 23:00:00 9.9 0 Calma 3 Noroeste 0 930.6 -- 88
2020-11-09 22:00:00 10.2 2 Noroeste 5 Nordeste 0 930.4 -- 86
2020-11-09 21:00:00 11 3 Norte 5 Nordeste 0 930 -- 86
2020-11-09 20:00:00 11.4 2 Norte 8 Sudoeste 0 929.8 -- 84
2020-11-09 19:00:00 12.2 5 Sudoeste 8 Sudoeste 0 929.3 -- 81
2020-11-09 18:00:00 13.1 2 Este 8 Norte 0 928.7 -- 78
2020-11-09 17:00:00 14.3 3 Norte 11 Norte 0 928.5 -- 73
2020-11-09 16:00:00 15.3 6 Norte 13 Sudoeste 0 928.3 -- 68
2020-11-09 15:00:00 14.4 8 Sudoeste 17 Sudoeste 0 928.4 -- 74
2020-11-09 14:00:00 13.6 10 Sudoeste 18 Sudoeste 0 928.5 -- 80
2020-11-09 13:00:00 12.2 9 Sudoeste 14 Sudoeste 0 928.9 -- 87
2020-11-09 12:00:00 11.5 6 Sudoeste 13 Sur 0 929.3 -- 91
2020-11-09 11:00:00 10.7 4 Sudoeste 21 Sur 0 929.2 -- 93
2020-11-09 10:00:00 10.2 9 Sur 19 Sudeste 0 928.9 -- 92
2020-11-09 09:00:00 9.7 9 Sudeste 16 Sudeste 0 928.3 -- 91
2020-11-09 08:00:00 9.6 9 Sudeste 14 Sudeste 0 927.5 -- 89
2020-11-09 07:00:00 9.7 4 Oeste 10 Sudoeste 0 927.6 -- 86
2020-11-09 06:00:00 9.9 6 Sur 12 Sur 0 927.2 -- 83
2020-11-09 05:00:00 9.6 7 Sudeste 16 Sudeste 0 927 -- 83
2020-11-09 04:00:00 9.1 9 Sudeste 17 Sudeste 0 926.9 -- 83
2020-11-09 03:00:00 8.9 12 Sudeste 20 Sudeste 0 927.1 -- 83
2020-11-09 02:00:00 9 10 Sudeste 17 Sudeste 0 927.2 -- 82
2020-11-09 01:00:00 9.3 8 Sudeste 11 Sudeste 0 927.6 -- 80
2020-11-09 00:00:00 9.4 8 Sudeste 12 Sudeste 0 927.8 -- 79
2020-11-08 23:00:00 9.9 7 Sudeste 13 Sudeste 0 927.9 -- 77
2020-11-08 22:00:00 10.2 7 Sudeste 12 Sudeste 0 927.8 -- 76
2020-11-08 21:00:00 10.2 6 Sudeste 10 Sudeste 0 927.7 -- 77
2020-11-08 20:00:00 11.3 4 Sudeste 8 Sudeste 0 927.8 -- 73
2020-11-08 19:00:00 12.6 3 Sudeste 9 Sur 0 927.8 -- 69
2020-11-08 18:00:00 14.9 5 Sur 17 Sur 0 927.7 -- 58
2020-11-08 17:00:00 16.1 8 Sur 21 Sur 0 927.7 -- 53
2020-11-08 16:00:00 16.6 8 Sur 26 Sudoeste 0 927.7 -- 53
2020-11-08 15:00:00 17.3 12 Sudoeste 29 Sudoeste 0 927.7 -- 51
2020-11-08 14:00:00 15.8 11 Sudoeste 23 Sur 0 928.3 -- 57
2020-11-08 13:00:00 15.2 9 Sudoeste 22 Sudoeste 0 928.9 -- 64
2020-11-08 12:00:00 14.2 8 Sur 18 Sudeste 0 929.5 -- 71
2020-11-08 11:00:00 11.8 8 Sudeste 18 Sudeste 0 929.6 -- 78
2020-11-08 10:00:00 9.9 10 Sudeste 17 Sudeste 0 929.6 -- 86
2020-11-08 09:00:00 7.6 9 Sudeste 18 Sudeste 0 929.4 -- 91
2020-11-08 08:00:00 6.7 10 Sudeste 16 Sudeste 0 928.9 -- 91
2020-11-08 07:00:00 7 10 Sudeste 14 Sudeste 0 928.6 -- 91
2020-11-08 06:00:00 7 9 Sudeste 16 Sudeste 0 928.7 -- 90
2020-11-08 05:00:00 7.3 10 Sudeste 16 Sudeste 0 928.9 -- 90
2020-11-08 04:00:00 7.4 10 Sudeste 13 Sudeste 0 929.1 -- 90
2020-11-08 03:00:00 7.7 8 Sudeste 15 Sudeste 0 929.5 -- 90
2020-11-08 02:00:00 7.9 12 Sudeste 19 Sudeste 0 929.4 -- 89
2020-11-08 01:00:00 8.3 10 Sudeste 17 Sudeste 0 929.7 -- 89
2020-11-08 00:00:00 8.7 9 Sudeste 18 Sudeste 0 929.5 -- 88
2020-11-07 23:00:00 9 7 Sur 15 Sur 0 929.4 -- 88
2020-11-07 22:00:00 9 5 Sudeste 12 Sudeste 0 929.2 -- 86
2020-11-07 21:00:00 10.1 4 Sur 10 Sur 0 929 -- 84
2020-11-07 20:00:00 10.8 4 Sudoeste 15 Sudoeste 0 928.6 -- 84
2020-11-07 19:00:00 12 10 Sudoeste 19 Sudoeste 0 928 -- 81
2020-11-07 18:00:00 12.4 15 Sudoeste 36 Sudoeste 0 927.3 -- 77
2020-11-07 17:00:00 13.4 19 Sudoeste 37 Sudoeste 0 926.7 -- 76
2020-11-07 16:00:00 13.2 8 Oeste 25 Oeste 0 926.2 -- 80
2020-11-07 15:00:00 14.4 12 Oeste 31 Sudoeste 0 925.8 -- 82
2020-11-07 14:00:00 13.8 17 Sudoeste 34 Sudoeste 0 925.6 -- 78
2020-11-07 13:00:00 12.4 21 Sudoeste 35 Sudoeste 0 925.4 -- 82
2020-11-07 12:00:00 11.2 16 Sudoeste 35 Sudoeste 0 925.3 -- 85
2020-11-07 11:00:00 11.2 12 Sur 32 Sur 0 924.4 -- 85
2020-11-07 10:00:00 10.8 13 Sur 27 Sur 0 923.4 -- 84
2020-11-07 09:00:00 10.6 9 Sur 24 Sur 0 922.6 -- 87
2020-11-07 08:00:00 10.7 10 Sur 32 Sur 0 921.6 -- 89
2020-11-07 07:00:00 11 16 Sudeste 32 Sur 0 921 -- 88
2020-11-07 06:00:00 11 10 Sudeste 23 Sur 0 921.2 -- 90
2020-11-07 05:00:00 10.9 11 Sur 26 Sudeste 0 920.6 -- 90
2020-11-07 04:00:00 10.9 17 Sudeste 34 Sudoeste 0 920.4 -- 90
2020-11-07 03:00:00 11.4 23 Sudoeste 50 Sudoeste 0 922.1 -- 90
2020-11-07 02:00:00 13.7 8 Sur 32 Sudeste 0 921.9 -- 90
2020-11-07 01:00:00 14 17 Sur 38 Sudeste 0 922.6 -- 86
2020-11-07 00:00:00 14.4 16 Sudeste 44 Sudeste 0 922.5 -- 80
2020-11-06 23:00:00 14.4 21 Sudeste 45 Sudeste 0 922.5 -- 79
2020-11-06 22:00:00 14.6 15 Sudeste 56 Sudeste 0 922.9 -- 79
2020-11-06 21:00:00 14.9 33 Sudeste 78 Sudeste 0 921.9 -- 76
2020-11-06 20:00:00 15 29 Sudeste 62 Sudeste 0 921.2 -- 76
2020-11-06 19:00:00 15.5 27 Sudeste 60 Sudeste 0 921.2 -- 73
2020-11-06 18:00:00 16 28 Sudeste 68 Sudeste 0 921.6 -- 73
2020-11-06 17:00:00 16.6 38 Sudeste 85 Sudeste 0 921 -- 69
2020-11-06 16:00:00 17.5 43 Sudeste 78 Sudeste 0 921 -- 65
2020-11-06 15:00:00 18.3 41 Sudeste 78 Sudeste 0 921.5 -- 62
2020-11-06 14:00:00 18.5 44 Sudeste 87 Este 0 922.1 -- 62
2020-11-06 13:00:00 17.3 45 Sudeste 93 Sudeste 0 922.8 -- 68
2020-11-06 12:00:00 17 39 Sudeste 72 Sudeste 0 923.5 -- 70
2020-11-06 11:00:00 15.5 33 Sudeste 70 Este 0 923.5 -0.5 76
2020-11-06 10:00:00 14.4 27 Sudeste 58 Este 0 923.7 -- 81
2020-11-06 09:00:00 13.1 26 Sudeste 53 Sudeste 0 923.9 -- 85
2020-11-06 08:00:00 12.4 16 Este 40 Sudeste 0 924 -- 87
2020-11-06 07:00:00 12.6 19 Sudeste 44 Sudeste 0 924.2 -- 86
2020-11-06 06:00:00 12.5 22 Sudeste 52 Sudeste 0 924.5 -- 87
2020-11-06 05:00:00 12.3 28 Sudeste 50 Sudeste 0 924.7 -- 88
2020-11-06 04:00:00 12 28 Sudeste 53 Sudeste 0 924.9 -- 88
2020-11-06 03:00:00 11.8 23 Sudeste 49 Sudeste 0 924.9 -- 88
2020-11-06 02:00:00 11.5 28 Sudeste 57 Este 0 924.6 -- 89
2020-11-06 01:00:00 11.3 25 Sudeste 49 Sudeste 0 924.9 -- 89
2020-11-06 00:00:00 11.5 22 Sudeste 43 Sudeste 0 925.2 -- 87
2020-11-05 23:00:00 11.5 23 Sudeste 42 Sudeste 0 925.2 -- 87
2020-11-05 22:00:00 11.6 18 Sudeste 45 Sudeste 0 924.9 -- 86
2020-11-05 21:00:00 11.5 18 Sudeste 42 Sudeste 0 924.7 -- 88
2020-11-05 20:00:00 11.6 19 Sudeste 38 Sudeste 0 924.4 -- 85
2020-11-05 19:00:00 12 21 Sudeste 42 Sudeste 0 924.7 -- 86
2020-11-05 18:00:00 12.3 22 Este 44 Sudeste 0 923.8 -- 85
2020-11-05 17:00:00 12.1 23 Este 40 Este 0 924.6 -- 90
2020-11-05 16:00:00 12.3 13 Sudeste 26 Sudeste 0 924.5 -- 88
2020-11-05 15:00:00 12.1 9 Sudeste 30 Sudeste 0 924.5 -- 83
2020-11-05 14:00:00 12.2 15 Sudeste 60 Sudeste 0 925.9 -- 86
2020-11-05 13:00:00 13.4 21 Sudeste 64 Este 0 924.9 -- 76
2020-11-05 12:00:00 13.1 29 Sudeste 76 Este 0 925.2 -- 77
2020-11-05 11:00:00 12.3 29 Sudeste 62 Este 0 925 -- 80
2020-11-05 10:00:00 11.7 26 Sudeste 56 Sudeste 0 925.5 -- 80
2020-11-05 09:00:00 11 24 Sudeste 51 Sudeste 0 924.9 -- 80
2020-11-05 08:00:00 10.8 24 Sudeste 51 Sudeste 0 924.8 -- 79
2020-11-05 07:00:00 11.1 23 Sudeste 57 Este 0 923.9 -- 73
2020-11-05 06:00:00 11.1 25 Este 54 Sudeste 0 923.4 -- 73
2020-11-05 05:00:00 10.7 24 Este 47 Este 0 923.7 -- 72
2020-11-05 04:00:00 10.4 22 Este 49 Este 0 924.1 -- 73
2020-11-05 03:00:00 10.2 19 Este 42 Sudeste 0 924 -- 77
2020-11-05 02:00:00 10 18 Este 41 Este 0 924.1 -- 81
2020-11-05 01:00:00 9.7 15 Sudeste 36 Este 0 924.4 -- 85
2020-11-05 00:00:00 9.8 18 Sudeste 48 Este 0 924.4 -- 85
2020-11-04 23:00:00 9.8 18 Este 40 Este 0 924.3 -- 85
2020-11-04 22:00:00 9.9 18 Este 33 Este 0 924.1 -- 84
2020-11-04 21:00:00 10 11 Este 23 Sudeste 0 923.8 -- 85
2020-11-04 20:00:00 9.8 9 Este 27 Sudeste 0 923.5 -- 87
2020-11-04 19:00:00 10.1 13 Este 30 Este 0 923.2 -- 86
2020-11-04 18:00:00 10.2 11 Este 32 Sudeste 0 922.9 -- 86
2020-11-04 17:00:00 10.3 13 Este 29 Sudeste 0 922.8 -- 89
2020-11-04 16:00:00 10.1 14 Sudeste 36 Este 0 923.3 -- 88
2020-11-04 15:00:00 10.3 20 Sudeste 37 Sudeste 0 923.3 -- 88
2020-11-04 14:00:00 10.8 14 Este 33 Este 0 923.6 -- 86
2020-11-04 13:00:00 10.4 7 Este 18 Nordeste 0 924.3 -- 89
2020-11-04 12:00:00 10.1 6 Este 16 Sudeste 0 924.9 -- 90
2020-11-04 11:00:00 9.6 5 Nordeste 14 Este 0 925.4 0.4 88
2020-11-04 10:00:00 9.5 6 Nordeste 17 Este 0 925.5 -- 87
2020-11-04 09:00:00 9.2 8 Este 14 Este 0 925.1 -- 89
2020-11-04 08:00:00 8.6 5 Norte 10 Nordeste 0 925 -- 90
2020-11-04 07:00:00 9.4 5 Este 13 Este 0 925.4 -- 85
2020-11-04 06:00:00 9.4 6 Este 13 Este 0 925.9 -- 85
2020-11-04 05:00:00 9.3 6 Nordeste 15 Nordeste 0 926.4 -- 85
2020-11-04 04:00:00 9.2 4 Nordeste 8 Norte 0 926.9 -- 89
2020-11-04 03:00:00 9.1 4 Norte 10 Nordeste 0 927.8 -- 89
2020-11-04 02:00:00 10 4 Nordeste 9 Sudeste 0 928.4 -- 86
2020-11-04 01:00:00 9.4 5 Norte 13 Norte 0 929.3 -- 89
2020-11-04 00:00:00 9.6 6 Norte 18 Norte 0 929.6 -- 90
2020-11-03 23:00:00 9.8 11 Norte 18 Norte 0 929.7 -- 93
2020-11-03 22:00:00 10.4 5 Norte 17 Norte 0 930.5 -- 92
2020-11-03 21:00:00 10.8 9 Nordeste 26 Noroeste 0 930.5 -- 92
2020-11-03 20:00:00 11.6 11 Noroeste 31 Noroeste 0 930.8 -- 90
2020-11-03 19:00:00 13.8 6 Nordeste 18 Nordeste 0 930.5 -- 79
2020-11-03 18:00:00 14.7 9 Nordeste 21 Nordeste 0 930.3 -- 78
2020-11-03 17:00:00 15.2 10 Nordeste 31 Norte 0 929.9 -- 67
2020-11-03 16:00:00 16.7 18 Norte 33 Norte 0 929.7 -- 62
2020-11-03 15:00:00 17.8 16 Nordeste 30 Norte 0 929.6 -- 52
2020-11-03 14:00:00 18.1 16 Norte 31 Norte 0 929.7 -- 53
2020-11-03 13:00:00 18.1 15 Nordeste 30 Nordeste 0 930.3 -- 55
2020-11-03 12:00:00 16.7 8 Nordeste 19 Nordeste 0 930.6 -- 68
2020-11-03 11:00:00 13.9 5 Noroeste 21 Norte 0 930.4 -- 85
2020-11-03 10:00:00 13.7 12 Norte 21 Norte 0 930 -- 87
2020-11-03 09:00:00 13.5 5 Este 9 Sudeste 0 929.8 -- 90
2020-11-03 08:00:00 13.3 2 Este 14 Sur 0 929.4 -- 87
2020-11-03 07:00:00 13.4 3 Sur 8 Sudeste 0 929 -- 82
2020-11-03 06:00:00 13.3 3 Nordeste 9 Noroeste 0 929 -- 85
2020-11-03 05:00:00 13.7 3 Noroeste 12 Noroeste 0 928.8 -- 82
2020-11-03 04:00:00 13.8 3 Noroeste 8 Noroeste 0 928.9 -- 80
2020-11-03 03:00:00 14.1 3 Noroeste 9 Noroeste 0 929 -- 78
2020-11-03 02:00:00 14.3 4 Oeste 8 Sudeste 0 928.9 -- 72
2020-11-03 01:00:00 15.6 0 Calma 11 Oeste 0 929 -- 68
2020-11-03 00:00:00 15.8 5 Oeste 9 Oeste 0 929.4 -- 66
2020-11-02 23:00:00 16.3 2 Norte 6 Norte 0 929.5 -- 61
2020-11-02 22:00:00 16.6 3 Noroeste 9 Noroeste 0 929.6 -- 58
2020-11-02 21:00:00 16.9 6 Noroeste 9 Noroeste 0 929.5 -- 54
2020-11-02 20:00:00 17.5 5 Norte 12 Noroeste 0 929.2 -- 50
2020-11-02 19:00:00 18.8 6 Noroeste 12 Noroeste 0 928.7 -- 42
2020-11-02 18:00:00 20.4 4 Oeste 12 Noroeste 0 928.3 -- 37
2020-11-02 17:00:00 22.2 4 Noroeste 16 Noroeste 0 928.2 -- 32
2020-11-02 16:00:00 23.8 5 Noroeste 22 Noroeste 0 928.4 -- 31
2020-11-02 15:00:00 25.3 5 Sudoeste 19 Sudoeste 0 928.4 -- 28
2020-11-02 14:00:00 23.7 6 Oeste 17 Sudoeste 0 929.2 -- 31
2020-11-02 13:00:00 21.6 6 Oeste 14 Oeste 0 930 -- 36
2020-11-02 12:00:00 19.4 4 Noroeste 10 Sur 0 930.3 -- 43
2020-11-02 11:00:00 16.5 2 Sudeste 7 Sudeste 0 930.3 -- 51
2020-11-02 10:00:00 13.7 4 Sudeste 8 Sudeste 0 930.2 -- 57
2020-11-02 09:00:00 11.2 4 Sudeste 8 Sudeste 0 929.8 -- 70
2020-11-02 08:00:00 10.3 5 Sudeste 7 Sudeste 0 929.5 -- 68
2020-11-02 07:00:00 10.6 3 Sudeste 7 Sudeste 0 929.3 -- 69
2020-11-02 06:00:00 10.9 5 Sudeste 8 Sudeste 0 929.4 -- 69
2020-11-02 05:00:00 11.3 5 Sudeste 9 Sudeste 0 929.3 -- 68
2020-11-02 04:00:00 11 3 Sudeste 8 Sudeste 0 929.5 -- 70
2020-11-02 03:00:00 11.8 5 Sudeste 7 Sudeste 0 929.9 -- 67
2020-11-02 02:00:00 12.4 2 Sudeste 9 Noroeste 0 930 -- 64
2020-11-02 01:00:00 12.9 4 Oeste 6 Oeste 0 930.2 -- 63
2020-11-02 00:00:00 13 0 Calma 3 Noroeste 0 930.4 -- 64
2020-11-01 23:00:00 13.4 0 Calma 4 Sur 0 930.5 -- 63
2020-11-01 22:00:00 13.7 0 Calma 4 Este 0 930.4 -- 60
2020-11-01 21:00:00 14.9 2 Este 4 Oeste 0 930.2 -- 56
2020-11-01 20:00:00 16 2 Noroeste 5 Oeste 0 930.4 -- 52
2020-11-01 19:00:00 17.3 4 Oeste 9 Oeste 0 930.2 -- 46
2020-11-01 18:00:00 20.2 4 Noroeste 15 Noroeste 0 930.1 -- 37
2020-11-01 17:00:00 21.4 7 Noroeste 19 Noroeste 0 930.2 -- 31
2020-11-01 16:00:00 23.7 7 Noroeste 18 Noroeste 0 930.3 -- 32
2020-11-01 15:00:00 23.4 6 Oeste 21 Noroeste 0 930.6 -- 33
2020-11-01 14:00:00 22.2 8 Oeste 20 Oeste 0 931 -- 38
2020-11-01 13:00:00 20.1 7 Oeste 18 Sudoeste 0 931.7 -- 46
2020-11-01 12:00:00 18.1 5 Oeste 12 Noroeste 0 932.3 -- 60
2020-11-01 11:00:00 15.1 2 Noroeste 7 Noroeste 0 932.5 -- 69
2020-11-01 10:00:00 13.3 0 Calma 8 Sudoeste 0 932.4 -- 75
2020-11-01 09:00:00 11.5 4 Sur 9 Sur 0 931.5 -- 84
2020-11-01 08:00:00 10.3 5 Sur 9 Sur 0 931.1 -- 83
2020-11-01 07:00:00 10.2 4 Sur 8 Sur 0 931.2 -- 81
2020-11-01 06:00:00 10.3 3 Sur 6 Sudeste 0 931 -- 79
2020-11-01 05:00:00 11.5 2 Sudoeste 4 Noroeste 0 930.7 -- 76
2020-11-01 04:00:00 12.1 2 Norte 4 Noroeste 0 931.4 -- 75
2020-11-01 03:00:00 12.3 0 Calma 7 Sudoeste 0 931.8 -- 73
2020-11-01 02:00:00 12.6 4 Sudoeste 9 Oeste 0 931.9 -- 68
2020-11-01 01:00:00 12.4 4 Sudeste 8 Sudeste 0 931.9 -- 67
2020-11-01 00:00:00 12.7 5 Sudeste 6 Sudeste 0 931.9 -- 65
2020-10-31 23:00:00 13.8 5 Sudeste 6 Sudeste 0 931.6 -- 62
2020-10-31 22:00:00 15.1 3 Norte 6 Noroeste 0 931.9 -- 56
2020-10-31 21:00:00 15.7 2 Norte 6 Noroeste 0 931.4 -- 53
2020-10-31 20:00:00 16.7 2 Norte 10 Noroeste 0 931.3 -- 50
2020-10-31 19:00:00 18.3 3 Noroeste 11 Noroeste 0 931.1 -- 45
2020-10-31 18:00:00 22.7 4 Noroeste 19 Noroeste 0 930.6 -- 32
2020-10-31 17:00:00 23.1 6 Noroeste 22 Noroeste 0 930.6 -- 31
2020-10-31 16:00:00 25.2 8 Noroeste 17 Noroeste 0 930.6 -- 27
2020-10-31 15:00:00 24.4 6 Sudoeste 17 Noroeste 0 930.6 -- 29
2020-10-31 14:00:00 21.9 6 Noroeste 18 Noroeste 0 931.5 -- 36
2020-10-31 13:00:00 20.6 9 Norte 20 Noroeste 0 932.2 -- 42
2020-10-31 12:00:00 19 3 Noroeste 8 Nordeste 0 932.6 -- 44
2020-10-31 11:00:00 15.9 3 Nordeste 7 Este 0 932.7 -- 56
2020-10-31 10:00:00 13.5 3 Este 6 Noroeste 0 932.5 -- 63
2020-10-31 09:00:00 11.9 4 Norte 8 Noroeste 0 932.2 -- 67
2020-10-31 08:00:00 10.4 4 Este 7 Este 0 931.5 -- 71
2020-10-31 07:00:00 10.5 3 Sudeste 6 Este 0 931.5 -- 70
2020-10-31 06:00:00 10.9 3 Este 7 Este 0 931.3 -- 71
2020-10-31 05:00:00 11.1 4 Este 7 Nordeste 0 931.1 -- 69
2020-10-31 04:00:00 11.2 2 Este 6 Nordeste 0 931.1 -- 69
2020-10-31 03:00:00 11.8 4 Nordeste 13 Sudoeste 0 931.4 -- 67
2020-10-31 02:00:00 11.5 0 Calma 8 Este 0 931.5 -- 68
2020-10-31 01:00:00 12.6 4 Nordeste 6 Nordeste 0 931.7 -- 63
2020-10-31 00:00:00 13.1 3 Nordeste 9 Este 0 931.8 -- 61
2020-10-30 23:00:00 14.3 5 Este 8 Este 0 932 -- 55
2020-10-30 22:00:00 14.2 4 Este 6 Este 0 931.9 -- 58
2020-10-30 21:00:00 15.1 4 Este 7 Este 0 931.6 -- 54
2020-10-30 20:00:00 15.7 0 Calma 5 Nordeste 0 931.6 -- 54
2020-10-30 19:00:00 17.4 0 Calma 5 Norte 0 931.5 -- 48
2020-10-30 18:00:00 20 4 Norte 11 Noroeste 0 931.3 -- 40
2020-10-30 17:00:00 21.3 6 Noroeste 14 Noroeste 0 931.3 -- 36
2020-10-30 16:00:00 22.2 4 Noroeste 14 Noroeste 0 931.4 -- 33
2020-10-30 15:00:00 21.2 5 Noroeste 14 Noroeste 0 931.7 -- 41
2020-10-30 14:00:00 19.3 6 Noroeste 16 Noroeste 0 932.1 -- 49
2020-10-30 13:00:00 18.3 6 Noroeste 13 Noroeste 0 932.7 -- 56
2020-10-30 12:00:00 16.5 4 Este 10 Este 0 933.1 -- 62
2020-10-30 11:00:00 13.5 3 Nordeste 10 Nordeste 0.4 933.1 -- 73
2020-10-30 10:00:00 11.5 5 Este 10 Este 0 933 -- 77
2020-10-30 09:00:00 10 2 Este 14 Este 0 932.7 -- 80
2020-10-30 08:00:00 9.1 8 Este 13 Este 0 932.2 -- 82
2020-10-30 07:00:00 9.1 6 Este 9 Este 0 932.1 -- 81
2020-10-30 06:00:00 9.2 6 Este 9 Este 0 932.3 -- 81
2020-10-30 05:00:00 9.1 5 Este 8 Este 0 932.2 -- 79
2020-10-30 04:00:00 10 6 Este 10 Este 0 932.3 -- 77
2020-10-30 03:00:00 10.4 8 Este 14 Este 0 932.3 -- 76
2020-10-30 02:00:00 10.5 8 Este 14 Este 0 932.5 -- 77
2020-10-30 01:00:00 9.5 6 Este 9 Este 0 932.5 -- 81
2020-10-30 00:00:00 9.9 3 Sudeste 6 Nordeste 0 932.8 -- 77
2020-10-29 23:00:00 10.6 3 Nordeste 5 Nordeste 0 932.8 -- 78
2020-10-29 22:00:00 10.7 2 Este 5 Este 0 932.9 -- 76
2020-10-29 21:00:00 11.6 3 Nordeste 5 Nordeste 0 932.6 -- 74
2020-10-29 20:00:00 12.1 3 Nordeste 8 Norte 0 932.7 -- 71
2020-10-29 19:00:00 12.5 4 Norte 9 Norte 0 932.4 -- 69
2020-10-29 18:00:00 15 6 Noroeste 13 Noroeste 0 932.2 -- 60
2020-10-29 17:00:00 17 4 Norte 10 Nordeste 0 932.1 -- 53
2020-10-29 16:00:00 17.5 4 Noroeste 13 Noroeste 0 932.1 -- 51
2020-10-29 15:00:00 15.5 7 Norte 18 Noroeste 0 932.3 -- 57
2020-10-29 14:00:00 14.4 5 Noroeste 14 Noroeste 0 932.7 -- 61
2020-10-29 13:00:00 13.5 2 Sudoeste 16 Sudeste 0 933.2 -- 67
2020-10-29 12:00:00 12.8 8 Sur 17 Sudeste 0 933.3 -- 73
2020-10-29 11:00:00 11.6 7 Este 17 Este 0 933.6 -- 81
2020-10-29 10:00:00 11.2 7 Nordeste 13 Nordeste 0 933.5 -- 83
2020-10-29 09:00:00 11.1 4 Norte 9 Nordeste 0 932.8 -- 85
2020-10-29 08:00:00 11.1 5 Nordeste 9 Nordeste 0 932.3 -- 87
2020-10-29 07:00:00 11 4 Norte 7 Norte 0 931.7 -- 88
2020-10-29 06:00:00 11.2 2 Norte 4 Norte 0 931.3 -- 89
2020-10-29 05:00:00 11.2 2 Noroeste 9 Noroeste 0 931 -- 88
2020-10-29 04:00:00 11.3 4 Noroeste 8 Noroeste 0 931 -- 87
2020-10-29 03:00:00 11.3 5 Oeste 13 Noroeste 0 931.1 -- 86
2020-10-29 02:00:00 11.4 4 Noroeste 12 Noroeste 0 931.2 -- 87
2020-10-29 01:00:00 11.3 4 Oeste 9 Noroeste 0 931.1 -- 88
2020-10-29 00:00:00 10.2 3 Sudoeste 11 Norte 0 931 -- 88
2020-10-28 23:00:00 11.2 3 Nordeste 6 Nordeste 0 930.9 -- 85
2020-10-28 22:00:00 11.8 3 Nordeste 13 Norte 0 930.6 -- 84
2020-10-28 21:00:00 12.8 6 Nordeste 12 Nordeste 0 930.4 -- 80
2020-10-28 20:00:00 12.9 4 Noroeste 12 Noroeste 0 930.4 -- 79
2020-10-28 19:00:00 13.2 4 Noroeste 20 Noroeste 0 929.8 -- 78
2020-10-28 18:00:00 14.1 9 Noroeste 19 Noroeste 0 929.1 -- 72
2020-10-28 17:00:00 16.1 4 Oeste 16 Oeste 0 928.7 -- 61
2020-10-28 16:00:00 15.7 8 Noroeste 20 Noroeste 0 928.9 -- 63
2020-10-28 15:00:00 16.4 5 Oeste 18 Sudoeste 0 928.9 -- 60
2020-10-28 14:00:00 16.4 9 Sudoeste 18 Sudoeste 0 929 -- 59
2020-10-28 13:00:00 13.7 9 Sudoeste 16 Sudoeste 0 929.5 -- 69
2020-10-28 12:00:00 11.9 3 Oeste 15 Sudoeste 0 929.7 -- 77
2020-10-28 11:00:00 10.9 8 Oeste 18 Oeste 0 929.4 -- 81
2020-10-28 10:00:00 10.4 4 Sudoeste 11 Sur 0 929 -- 82
2020-10-28 09:00:00 9.9 4 Sudeste 10 Sur 0 928.3 -- 85
2020-10-28 08:00:00 9.3 5 Oeste 19 Noroeste 0 927.6 -- 86
2020-10-28 07:00:00 9.3 6 Oeste 15 Oeste 0 927.1 -- 88
2020-10-28 06:00:00 9 6 Oeste 17 Noroeste 0 926.9 -- 88
2020-10-28 05:00:00 8.5 7 Sudoeste 13 Sudoeste 0 926.5 -- 86
2020-10-28 04:00:00 8.4 5 Sur 9 Sur 0 926.4 -- 85
2020-10-28 03:00:00 8.4 6 Sudoeste 10 Sudoeste 0 926.4 -- 84
2020-10-28 02:00:00 8.8 3 Sur 9 Sudoeste 0 926.6 -- 81
2020-10-28 01:00:00 9.2 4 Oeste 10 Noroeste 0 926.7 -- 81
2020-10-28 00:00:00 9.3 3 Oeste 14 Oeste 0 927 -- 80
2020-10-27 23:00:00 9.4 5 Sudoeste 15 Oeste 0 926.7 -- 79
2020-10-27 22:00:00 9.4 5 Noroeste 14 Noroeste 0 926.7 -- 76
2020-10-27 21:00:00 9.5 5 Oeste 16 Oeste 0 926.5 -- 75
2020-10-27 20:00:00 10.2 6 Oeste 17 Noroeste 0 926.3 -- 70
2020-10-27 19:00:00 10.8 7 Oeste 24 Oeste 0 925.8 -- 64
2020-10-27 18:00:00 13.9 9 Oeste 26 Oeste 0 925.4 -- 49
2020-10-27 17:00:00 15.1 17 Oeste 27 Sudoeste 0 924.9 -- 39
2020-10-27 16:00:00 15.7 15 Oeste 32 Oeste 0 925.1 -- 39
2020-10-27 15:00:00 15 15 Oeste 30 Oeste 0 925.3 -- 43
2020-10-27 14:00:00 14.4 11 Oeste 29 Sudoeste 0 925.6 -- 47
2020-10-27 13:00:00 13.1 10 Oeste 23 Oeste 0 926.2 -- 54
2020-10-27 12:00:00 11.6 9 Sudoeste 23 Sudoeste 0 926.5 -- 60
2020-10-27 11:00:00 9 12 Sudoeste 19 Sudoeste 0 926.5 -- 74
2020-10-27 10:00:00 7.3 13 Oeste 22 Oeste 0 926.5 -- 77
2020-10-27 09:00:00 5 6 Sudoeste 12 Sudoeste 0 925.9 -- 84
2020-10-27 08:00:00 3.6 6 Sudoeste 12 Sudoeste 0 925.6 -- 86
2020-10-27 07:00:00 3.6 6 Sur 16 Sur 0 925.4 -- 86
2020-10-27 06:00:00 4.3 6 Sur 12 Sudoeste 0 925.5 -- 82
2020-10-27 05:00:00 4.1 7 Sudoeste 15 Sudoeste 0 925.4 -- 83
2020-10-27 04:00:00 4.5 6 Sudoeste 13 Oeste 0 925.8 -- 78
2020-10-27 03:00:00 5.2 8 Sudoeste 13 Sudoeste 0 926 -- 74
2020-10-27 02:00:00 5.8 4 Oeste 14 Oeste 0 926.3 -- 71
2020-10-27 01:00:00 6.4 9 Oeste 19 Oeste 0 926.5 -- 68
2020-10-27 00:00:00 6 7 Oeste 22 Oeste 0 926.7 -- 73